createdAt,value
2023-01-11T01:06:38.405Z,-8.69
2023-01-11T01:09:26.541Z,-8.70
2023-01-11T01:12:33.801Z,-8.68
2023-01-11T01:15:21.050Z,-8.63
2023-01-11T01:18:08.659Z,-8.56
2023-01-11T01:20:55.902Z,-8.50
2023-01-11T01:23:43.234Z,-8.49
2023-01-11T01:26:30.609Z,-8.48
2023-01-11T01:29:18.125Z,-8.47
2023-01-11T01:32:05.418Z,-8.47
2023-01-11T01:34:53.559Z,-8.46
2023-01-11T01:37:40.901Z,-8.47
2023-01-11T01:40:28.174Z,-8.46
2023-01-11T01:43:16.593Z,-8.47
2023-01-11T01:46:04.135Z,-8.49
2023-01-11T01:48:57.684Z,-8.50
2023-01-11T01:51:51.161Z,-8.52
2023-01-11T01:54:41.068Z,-8.57
2023-01-11T01:57:30.022Z,-8.61
2023-01-11T02:00:17.747Z,-8.63
2023-01-11T02:03:05.088Z,-8.69
2023-01-11T02:05:53.107Z,-8.77
2023-01-11T02:08:40.746Z,-8.83
2023-01-11T02:11:31.457Z,-8.90
2023-01-11T02:14:19.300Z,-8.94
2023-01-11T02:17:08.134Z,-9.00
2023-01-11T02:19:57.351Z,-9.05
2023-01-11T02:22:50.413Z,-9.10
2023-01-11T02:26:08.252Z,-9.14
2023-01-11T02:29:16.961Z,-9.17
2023-01-11T02:32:13.516Z,-9.21
2023-01-11T02:35:39.843Z,-9.26
2023-01-11T02:38:33.205Z,-9.30
2023-01-11T02:41:25.707Z,-9.30
2023-01-11T02:44:31.622Z,-9.31
2023-01-11T02:47:23.800Z,-9.32
2023-01-11T02:50:46.209Z,-9.33
2023-01-11T02:53:41.818Z,-9.38
2023-01-11T02:56:31.142Z,-9.45
2023-01-11T02:59:22.696Z,-9.54
2023-01-11T03:02:10.067Z,-9.62
2023-01-11T03:04:57.677Z,-9.65
2023-01-11T03:07:47.780Z,-9.66
2023-01-11T03:10:41.609Z,-9.67
2023-01-11T03:13:54.155Z,-9.70
2023-01-11T03:16:54.381Z,-9.73
2023-01-11T03:19:59.100Z,-9.76
2023-01-11T03:23:03.869Z,-9.81
2023-01-11T03:25:53.831Z,-9.82
2023-01-11T03:29:04.262Z,-9.86
2023-01-11T03:32:33.031Z,-9.89
2023-01-11T03:35:41.701Z,-9.90
2023-01-11T03:38:51.417Z,-9.90
2023-01-11T03:41:38.859Z,-9.89
2023-01-11T03:44:27.530Z,-9.88
2023-01-11T03:47:15.198Z,-9.89
2023-01-11T03:50:04.466Z,-9.90
2023-01-11T03:52:51.818Z,-9.91
2023-01-11T03:55:40.479Z,-9.95
2023-01-11T07:03:51.818Z,-10.48
2023-01-11T07:06:39.256Z,-10.39
2023-01-11T07:09:26.837Z,-10.28
2023-01-11T07:12:14.336Z,-10.17
2023-01-11T07:15:02.466Z,-10.06
2023-01-11T07:17:57.760Z,-9.93
2023-01-11T07:20:45.261Z,-9.79
2023-01-11T07:23:32.703Z,-9.67
2023-01-11T07:26:22.204Z,-9.56
2023-01-11T07:29:09.948Z,-9.43
2023-01-11T07:31:57.402Z,-9.35
2023-01-11T07:34:44.791Z,-9.28
2023-01-11T07:37:32.845Z,-9.21
2023-01-11T07:40:20.518Z,-9.13
2023-01-11T07:43:14.652Z,-9.03
2023-01-11T07:46:02.372Z,-8.95
2023-01-11T07:48:49.909Z,-8.87
2023-01-11T07:51:37.362Z,-8.81
2023-01-11T07:54:24.866Z,-8.78
2023-01-11T07:57:30.656Z,-8.74
2023-01-11T08:00:18.707Z,-8.70
2023-01-11T08:03:06.270Z,-8.70
2023-01-11T08:05:54.348Z,-8.70
2023-01-11T08:08:42.189Z,-8.69
2023-01-11T08:11:48.261Z,-8.61
2023-01-11T08:14:41.572Z,-8.53
2023-01-11T08:17:29.258Z,-8.49
2023-01-11T08:20:17.000Z,-8.46
2023-01-11T08:23:05.085Z,-8.42
2023-01-11T08:25:56.306Z,-8.38
2023-01-11T08:28:44.277Z,-8.34
2023-01-11T08:31:31.751Z,-8.32
2023-01-11T08:34:19.182Z,-8.30
2023-01-11T08:37:06.576Z,-8.25
2023-01-11T08:39:55.893Z,-8.24
2023-01-11T08:42:43.317Z,-8.23
2023-01-11T08:45:30.787Z,-8.20
2023-01-11T08:48:18.228Z,-8.13
2023-01-11T08:51:05.851Z,-8.03
2023-01-11T08:53:53.426Z,-7.90
2023-01-11T08:56:40.866Z,-7.81
2023-01-11T08:59:28.273Z,-7.72
2023-01-11T09:02:15.744Z,-7.65
2023-01-11T09:05:03.291Z,-7.61
2023-01-11T09:07:50.735Z,-7.56
2023-01-11T09:10:38.299Z,-7.47
2023-01-11T09:13:26.574Z,-7.37
2023-01-11T09:16:14.058Z,-7.23
2023-01-11T09:19:01.515Z,-7.06
2023-01-11T09:21:49.127Z,-6.91
2023-01-11T09:24:36.769Z,-6.81
2023-01-11T09:27:24.471Z,-6.73
2023-01-11T09:30:12.710Z,-6.69
2023-01-11T09:33:00.290Z,-6.68
2023-01-11T09:35:49.225Z,-6.64
2023-01-11T09:38:39.173Z,-6.57
2023-01-11T09:43:40.097Z,-6.50
2023-01-11T09:46:27.948Z,-6.48
2023-01-11T09:49:19.144Z,-6.47
2023-01-11T09:52:33.175Z,-6.46
2023-01-11T09:55:28.132Z,-6.41
2023-01-11T13:06:47.239Z,-7.27
2023-01-11T13:09:58.466Z,-7.27
2023-01-11T13:13:12.625Z,-7.25
2023-01-11T13:16:05.022Z,-7.24
2023-01-11T13:19:00.703Z,-7.22
2023-01-11T13:21:53.336Z,-7.20
2023-01-11T13:24:40.733Z,-7.18
2023-01-11T13:27:28.622Z,-7.18
2023-01-11T13:30:17.903Z,-7.20
2023-01-11T13:33:07.367Z,-7.21
2023-01-11T13:35:57.848Z,-7.25
2023-01-11T13:38:56.073Z,-7.28
2023-01-11T13:41:46.428Z,-7.33
2023-01-11T13:44:37.165Z,-7.38
2023-01-11T13:47:37.489Z,-7.42
2023-01-11T13:50:30.810Z,-7.46
2023-01-11T13:53:41.608Z,-7.50
2023-01-11T13:56:34.538Z,-7.51
2023-01-11T13:59:26.187Z,-7.53
2023-01-11T14:02:56.327Z,-7.55
2023-01-11T14:05:56.312Z,-7.58
2023-01-11T14:09:04.171Z,-7.59
2023-01-11T14:12:25.231Z,-7.60
2023-01-11T14:15:15.773Z,-7.64
2023-01-11T14:18:18.415Z,-7.70
2023-01-11T14:21:27.438Z,-7.69
2023-01-11T14:24:14.894Z,-7.68
2023-01-11T14:27:12.452Z,-7.66
2023-01-11T14:30:25.092Z,-7.66
2023-01-11T14:33:44.970Z,-7.67
2023-01-11T14:36:57.258Z,-7.69
2023-01-11T14:39:48.674Z,-7.69
2023-01-11T14:43:00.672Z,-7.68
2023-01-11T14:46:00.291Z,-7.68
2023-01-11T14:48:48.294Z,-7.67
2023-01-11T14:51:48.853Z,-7.68
2023-01-11T14:54:44.175Z,-7.69
2023-01-11T14:57:39.834Z,-7.72
2023-01-11T15:00:27.444Z,-7.74
2023-01-11T15:03:19.659Z,-7.78
2023-01-11T15:06:13.675Z,-7.81
2023-01-11T15:09:01.226Z,-7.85
2023-01-11T15:11:48.807Z,-7.87
2023-01-11T15:14:37.501Z,-7.88
2023-01-11T15:17:44.136Z,-7.85
2023-01-11T15:20:33.701Z,-7.85
2023-01-11T15:23:21.299Z,-7.84
2023-01-11T15:26:09.664Z,-7.84
2023-01-11T15:29:00.869Z,-7.85
2023-01-11T15:31:54.903Z,-7.85
2023-01-11T15:34:44.374Z,-7.86
2023-01-11T15:38:00.693Z,-7.87
2023-01-11T15:40:48.073Z,-7.89
2023-01-11T15:44:06.607Z,-7.91
2023-01-11T15:47:21.564Z,-7.96
2023-01-11T15:50:15.967Z,-8.02
2023-01-11T15:53:15.566Z,-8.05
2023-01-11T15:56:17.190Z,-8.06
2023-01-11T19:06:21.038Z,-10.03
2023-01-11T19:09:08.653Z,-10.00
2023-01-11T19:11:56.129Z,-9.97
2023-01-11T19:14:43.627Z,-9.92
2023-01-11T19:17:31.581Z,-9.86
2023-01-11T19:20:19.210Z,-9.78
2023-01-11T19:23:06.630Z,-9.70
2023-01-11T19:25:58.248Z,-9.60
2023-01-11T19:28:45.855Z,-9.52
2023-01-11T19:31:33.392Z,-9.45
2023-01-11T19:34:20.806Z,-9.42
2023-01-11T19:37:08.459Z,-9.41
2023-01-11T19:39:56.202Z,-9.39
2023-01-11T19:42:45.902Z,-9.38
2023-01-11T19:45:33.334Z,-9.37
2023-01-11T19:48:20.932Z,-9.38
2023-01-11T19:51:10.585Z,-9.39
2023-01-11T19:53:58.271Z,-9.39
2023-01-11T19:56:45.932Z,-9.39
2023-01-11T19:59:33.395Z,-9.38
2023-01-11T20:02:21.234Z,-9.35
2023-01-11T20:05:09.193Z,-9.27
2023-01-11T20:07:56.796Z,-9.18
2023-01-11T20:10:44.516Z,-9.11
2023-01-11T20:13:32.281Z,-9.08
2023-01-11T20:16:21.099Z,-9.05
2023-01-11T20:19:08.637Z,-9.03
2023-01-11T20:21:56.578Z,-8.97
2023-01-11T20:24:44.010Z,-8.89
2023-01-11T20:27:31.477Z,-8.84
2023-01-11T20:30:18.918Z,-8.77
2023-01-11T20:33:09.400Z,-8.70
2023-01-11T20:35:57.061Z,-8.63
2023-01-11T20:38:45.197Z,-8.57
2023-01-11T20:41:48.401Z,-8.53
2023-01-11T20:44:35.983Z,-8.46
2023-01-11T20:47:23.434Z,-8.38
2023-01-11T20:50:11.269Z,-8.33
2023-01-11T20:53:00.341Z,-8.31
2023-01-11T20:55:47.957Z,-8.29
2023-01-11T20:58:35.621Z,-8.25
2023-01-11T21:01:26.788Z,-8.23
2023-01-11T21:04:14.613Z,-8.23
2023-01-11T21:07:02.919Z,-8.19
2023-01-11T21:09:50.653Z,-8.14
2023-01-11T21:12:40.959Z,-8.12
2023-01-11T21:15:28.661Z,-8.08
2023-01-11T21:18:16.347Z,-8.07
2023-01-11T21:21:04.470Z,-8.06
2023-01-11T21:24:00.304Z,-8.03
2023-01-11T21:26:48.355Z,-8.01
2023-01-11T21:29:35.887Z,-8.00
2023-01-11T21:32:23.609Z,-8.00
2023-01-11T21:35:11.075Z,-7.99
2023-01-11T21:37:58.482Z,-7.98
2023-01-11T21:40:45.898Z,-8.00
2023-01-11T21:43:33.656Z,-8.03
2023-01-11T21:46:21.142Z,-8.01
2023-01-11T21:49:08.927Z,-8.01
2023-01-11T21:51:56.395Z,-8.03
2023-01-11T21:54:43.778Z,-8.06
2023-01-11T21:57:31.384Z,-8.08
